createdAt,value
2023-04-26T00:00:12.053Z,2.76
2023-04-26T00:02:39.078Z,2.71
2023-04-26T00:05:08.022Z,2.59
2023-04-26T00:07:35.779Z,2.51
2023-04-26T00:10:02.568Z,2.46
2023-04-26T00:12:29.415Z,2.43
2023-04-26T00:14:56.358Z,2.39
2023-04-26T00:17:24.183Z,2.38
2023-04-26T00:19:51.358Z,2.33
2023-04-26T00:22:18.248Z,2.26
2023-04-26T00:24:45.118Z,2.19
2023-04-26T00:27:11.934Z,2.20
2023-04-26T00:29:39.029Z,2.19
2023-04-26T00:32:06.519Z,2.13
2023-04-26T00:34:37.671Z,2.15
2023-04-26T00:37:05.504Z,2.12
2023-04-26T00:39:32.432Z,2.09
2023-04-26T00:41:59.349Z,2.07
2023-04-26T00:44:26.308Z,2.07
2023-04-26T00:46:54.095Z,2.01
2023-04-26T00:49:24.552Z,2.02
2023-04-26T00:51:52.514Z,1.98
2023-04-26T00:54:21.599Z,2.00
2023-04-26T00:56:52.129Z,1.93
2023-04-26T00:59:22.371Z,1.94
2023-04-26T01:01:49.692Z,1.88
2023-04-26T01:04:18.308Z,1.90
2023-04-26T01:06:46.207Z,1.87
2023-04-26T01:09:16.271Z,1.86
2023-04-26T01:11:43.824Z,1.80
2023-04-26T01:14:11.534Z,1.73
2023-04-26T01:16:39.598Z,1.71
2023-04-26T01:19:13.248Z,1.68
2023-04-26T01:21:41.038Z,1.63
2023-04-26T01:24:09.884Z,1.64
2023-04-26T01:26:48.256Z,1.63
2023-04-26T01:29:19.117Z,1.55
2023-04-26T01:31:46.756Z,1.57
2023-04-26T01:34:14.270Z,1.56
2023-04-26T01:36:41.408Z,1.58
2023-04-26T01:39:09.560Z,1.55
2023-04-26T01:41:36.871Z,1.61
2023-04-26T01:44:03.824Z,1.71
2023-04-26T01:46:31.281Z,1.75
2023-04-26T01:48:58.201Z,1.85
2023-04-26T01:51:25.055Z,1.87
2023-04-26T01:53:51.863Z,1.96
2023-04-26T01:56:19.718Z,2.02
2023-04-26T01:58:46.696Z,2.04
2023-04-26T02:01:13.667Z,2.01
2023-04-26T02:03:40.658Z,2.02
2023-04-26T02:06:07.902Z,1.93
2023-04-26T02:08:34.754Z,1.93
2023-04-26T02:11:01.627Z,1.99
2023-04-26T02:13:28.422Z,2.03
2023-04-26T02:15:55.595Z,1.97
2023-04-26T02:18:22.806Z,1.96
2023-04-26T02:20:50.897Z,1.83
2023-04-26T02:23:17.901Z,1.81
2023-04-26T02:25:49.042Z,1.73
2023-04-26T02:28:17.442Z,1.77
2023-04-26T02:30:45.073Z,1.77
2023-04-26T02:33:12.003Z,1.76
2023-04-26T02:35:39.346Z,1.79
2023-04-26T02:38:06.297Z,1.80
2023-04-26T02:40:33.205Z,1.87
2023-04-26T02:43:00.504Z,1.85
2023-04-26T02:45:27.625Z,1.85
2023-04-26T02:47:54.595Z,1.82
2023-04-26T02:50:21.660Z,1.87
2023-04-26T02:52:50.154Z,1.87
2023-04-26T02:55:17.526Z,1.84
2023-04-26T02:57:44.512Z,1.86
2023-04-26T03:00:14.440Z,1.95
2023-04-26T03:02:41.976Z,2.01
2023-04-26T03:05:09.855Z,2.04
2023-04-26T03:07:37.270Z,2.02
2023-04-26T03:10:05.325Z,2.03
2023-04-26T03:12:33.336Z,1.96
2023-04-26T03:15:03.867Z,1.91
2023-04-26T03:17:31.287Z,1.84
2023-04-26T03:20:00.552Z,1.87
2023-04-26T03:22:28.750Z,1.72
2023-04-26T03:24:55.662Z,1.71
2023-04-26T03:27:22.657Z,1.68
2023-04-26T03:29:49.514Z,1.56
2023-04-26T03:32:16.664Z,1.63
2023-04-26T03:34:43.578Z,1.64
2023-04-26T03:37:10.500Z,1.65
2023-04-26T03:39:38.691Z,1.65
2023-04-26T03:42:06.120Z,1.69
2023-04-26T03:44:34.710Z,1.67
2023-04-26T03:47:01.645Z,1.72
2023-04-26T03:49:29.031Z,1.73
2023-04-26T03:51:56.333Z,1.72
2023-04-26T03:54:23.157Z,1.77
2023-04-26T03:56:50.061Z,1.74
2023-04-26T03:59:17.019Z,1.73
2023-04-26T04:01:43.878Z,1.76
2023-04-26T04:04:10.975Z,1.73
2023-04-26T04:06:39.611Z,1.72
2023-04-26T04:09:06.386Z,1.72
2023-04-26T04:11:33.409Z,1.69
2023-04-26T04:14:00.363Z,1.66
2023-04-26T04:16:27.933Z,1.65
2023-04-26T04:18:55.322Z,1.68
2023-04-26T04:21:22.198Z,1.64
2023-04-26T04:23:50.429Z,1.68
2023-04-26T04:26:17.730Z,1.66
2023-04-26T04:28:45.770Z,1.72
2023-04-26T04:31:13.323Z,1.86
2023-04-26T04:33:41.721Z,2.01
2023-04-26T04:36:09.804Z,2.12
2023-04-26T04:38:36.650Z,2.21
2023-04-26T04:41:05.210Z,2.24
2023-04-26T04:43:34.098Z,2.22
2023-04-26T04:46:01.310Z,2.35
2023-04-26T04:48:28.269Z,2.33
2023-04-26T04:50:56.112Z,2.31
2023-04-26T04:53:23.677Z,2.38
2023-04-26T04:55:51.325Z,2.44
2023-04-26T04:58:18.592Z,2.45
2023-04-26T05:00:47.062Z,2.49
2023-04-26T05:03:34.340Z,2.61
2023-04-26T05:06:02.889Z,2.72
2023-04-26T05:08:29.718Z,2.68
2023-04-26T05:10:59.508Z,2.65
2023-04-26T05:13:26.574Z,2.79
2023-04-26T05:15:54.673Z,2.95
2023-04-26T05:18:21.997Z,3.05
2023-04-26T05:20:49.132Z,3.08
2023-04-26T05:23:16.071Z,3.03
2023-04-26T05:25:42.958Z,3.01
2023-04-26T05:28:36.112Z,2.92
2023-04-26T05:31:17.627Z,2.89
2023-04-26T05:34:10.650Z,2.91
2023-04-26T05:36:39.376Z,2.98
2023-04-26T05:39:07.551Z,3.12
2023-04-26T05:41:34.441Z,3.11
2023-04-26T05:44:01.490Z,3.22
2023-04-26T05:46:28.466Z,3.33
2023-04-26T05:48:55.534Z,3.40
2023-04-26T05:51:22.386Z,3.53
2023-04-26T05:53:50.230Z,3.65
2023-04-26T05:56:17.559Z,3.69
2023-04-26T05:58:44.578Z,3.74
2023-04-26T06:01:12.543Z,3.79
2023-04-26T06:03:39.720Z,3.84
2023-04-26T06:06:08.141Z,3.90
2023-04-26T06:08:37.453Z,4.03
2023-04-26T06:11:04.295Z,4.17
2023-04-26T06:13:31.400Z,4.41
2023-04-26T06:15:59.998Z,4.57
2023-04-26T06:18:26.893Z,4.76
2023-04-26T06:20:53.758Z,4.94
2023-04-26T06:23:20.618Z,4.86
2023-04-26T06:25:47.440Z,4.79
2023-04-26T06:28:14.454Z,4.76
2023-04-26T06:30:42.700Z,4.69
2023-04-26T06:33:09.564Z,4.71
2023-04-26T06:35:42.151Z,4.73
2023-04-26T06:38:12.777Z,4.72
2023-04-26T06:40:39.720Z,4.87
2023-04-26T06:43:06.603Z,4.94
2023-04-26T06:45:52.075Z,4.98
2023-04-26T06:48:20.345Z,5.03
2023-04-26T06:50:47.361Z,5.22
2023-04-26T06:53:14.257Z,5.35
2023-04-26T06:55:41.134Z,5.49
2023-04-26T06:58:08.015Z,5.56
2023-04-26T07:00:34.915Z,5.63
2023-04-26T07:03:01.939Z,5.74
2023-04-26T07:05:28.930Z,5.87
2023-04-26T07:07:56.120Z,5.91
2023-04-26T07:10:23.116Z,6.04
2023-04-26T07:12:49.965Z,6.10
2023-04-26T07:15:16.774Z,6.06
2023-04-26T07:17:43.641Z,6.18
2023-04-26T07:20:10.785Z,6.20
2023-04-26T07:22:37.595Z,6.28
2023-04-26T07:25:05.461Z,6.43
2023-04-26T07:27:32.497Z,6.67
2023-04-26T07:29:59.604Z,7.06
2023-04-26T07:32:26.593Z,7.36
2023-04-26T07:34:53.778Z,7.44
2023-04-26T07:37:21.100Z,7.47
2023-04-26T07:39:47.998Z,7.43
2023-04-26T07:42:15.494Z,7.68
2023-04-26T07:44:42.422Z,7.56
2023-04-26T07:47:14.003Z,7.52
2023-04-26T07:49:41.452Z,7.53
2023-04-26T07:52:09.368Z,7.21
2023-04-26T07:54:36.254Z,7.28
2023-04-26T07:57:03.511Z,7.14
2023-04-26T07:59:30.292Z,6.95
2023-04-26T08:01:57.492Z,7.01
2023-04-26T08:04:34.782Z,7.26
2023-04-26T08:07:02.398Z,7.54
2023-04-26T08:09:29.618Z,7.68
2023-04-26T08:11:57.178Z,7.92
2023-04-26T08:14:23.992Z,7.83
2023-04-26T08:16:51.854Z,7.98
2023-04-26T08:19:18.836Z,8.11
2023-04-26T08:21:45.660Z,8.38
2023-04-26T08:24:12.486Z,8.22
2023-04-26T08:26:39.340Z,8.16
2023-04-26T08:29:06.699Z,8.17
2023-04-26T08:31:33.704Z,8.08
2023-04-26T08:34:00.536Z,7.92
2023-04-26T08:36:27.947Z,8.20
2023-04-26T08:38:56.785Z,8.43
2023-04-26T08:41:25.027Z,8.47
2023-04-26T08:43:53.003Z,8.57
2023-04-26T08:46:21.838Z,8.76
2023-04-26T08:48:59.297Z,8.92
2023-04-26T08:51:27.641Z,8.79
2023-04-26T08:53:57.147Z,8.79
2023-04-26T08:56:24.610Z,9.14
2023-04-26T08:58:54.681Z,9.20
2023-04-26T09:01:24.152Z,9.46
2023-04-26T09:03:52.133Z,9.60
2023-04-26T09:06:19.794Z,9.69
2023-04-26T09:08:47.741Z,9.82
2023-04-26T09:11:14.669Z,9.24
2023-04-26T09:13:41.509Z,9.31
2023-04-26T09:16:08.915Z,9.60
2023-04-26T09:18:35.934Z,9.93
2023-04-26T09:21:02.705Z,10.22
2023-04-26T09:23:29.569Z,9.82
2023-04-26T09:25:56.402Z,9.61
2023-04-26T09:28:24.248Z,9.46
2023-04-26T09:30:51.142Z,9.26
2023-04-26T09:33:19.655Z,9.13
2023-04-26T09:35:46.591Z,8.84
2023-04-26T09:38:18.206Z,8.88
2023-04-26T09:40:47.363Z,9.00
2023-04-26T09:43:19.152Z,9.15
2023-04-26T09:45:59.309Z,8.94
2023-04-26T09:48:30.854Z,9.00
2023-04-26T09:51:03.756Z,9.00
2023-04-26T09:53:39.542Z,9.29
2023-04-26T09:56:10.295Z,9.50
2023-04-26T09:58:39.033Z,9.44
2023-04-26T10:01:08.155Z,8.77
2023-04-26T10:03:37.244Z,8.48
2023-04-26T10:06:05.217Z,8.16
2023-04-26T10:08:35.338Z,7.80
2023-04-26T10:11:04.708Z,7.53
2023-04-26T10:13:35.291Z,7.35
2023-04-26T10:16:02.891Z,7.20
2023-04-26T10:18:31.642Z,7.20
2023-04-26T10:21:11.522Z,7.29
2023-04-26T10:23:38.650Z,7.31
2023-04-26T10:26:05.781Z,7.35
2023-04-26T10:28:44.855Z,7.26
2023-04-26T10:31:12.291Z,7.75
2023-04-26T10:33:39.113Z,8.05
2023-04-26T10:36:08.805Z,8.53
2023-04-26T10:39:12.930Z,9.14
2023-04-26T10:41:40.307Z,9.41
2023-04-26T10:44:43.016Z,10.01
2023-04-26T10:47:26.229Z,9.76
2023-04-26T10:49:53.452Z,10.05
2023-04-26T10:52:23.353Z,10.31
2023-04-26T10:54:55.565Z,10.15
2023-04-26T10:57:23.825Z,10.02
2023-04-26T11:00:13.582Z,10.25
2023-04-26T11:02:53.399Z,10.36
2023-04-26T11:05:39.013Z,10.67
2023-04-26T11:08:15.840Z,10.96
2023-04-26T11:10:43.795Z,11.60
2023-04-26T11:13:12.212Z,11.31
2023-04-26T11:15:39.094Z,11.29
2023-04-26T11:18:06.022Z,10.87
2023-04-26T11:20:33.692Z,10.35
2023-04-26T11:23:01.331Z,10.33
2023-04-26T11:25:29.407Z,9.76
2023-04-26T11:28:03.221Z,9.76
2023-04-26T11:30:31.970Z,9.86
2023-04-26T11:33:06.225Z,10.11
2023-04-26T11:35:35.991Z,9.87
2023-04-26T11:38:08.356Z,9.30
2023-04-26T11:40:37.492Z,9.59
2023-04-26T11:43:05.814Z,9.35
2023-04-26T11:45:37.464Z,9.20
2023-04-26T11:48:07.689Z,9.01
2023-04-26T11:50:37.217Z,9.07
2023-04-26T11:53:07.317Z,8.75
2023-04-26T11:55:35.287Z,8.21
2023-04-26T11:58:11.282Z,7.98
2023-04-26T12:00:38.656Z,8.01
2023-04-26T12:03:11.405Z,7.92
2023-04-26T12:05:38.727Z,8.11
2023-04-26T12:08:05.831Z,8.34
2023-04-26T12:10:36.062Z,8.73
2023-04-26T12:13:02.953Z,8.44
2023-04-26T12:15:31.835Z,8.45
2023-04-26T12:18:10.688Z,8.73
2023-04-26T12:20:40.222Z,8.11
2023-04-26T12:23:13.802Z,7.99
2023-04-26T12:25:42.192Z,7.75
2023-04-26T12:28:14.108Z,7.53
2023-04-26T12:30:41.325Z,7.70
2023-04-26T12:33:17.272Z,7.38
2023-04-26T12:35:44.882Z,7.26
2023-04-26T12:38:12.574Z,7.14
2023-04-26T12:40:39.826Z,6.93
2023-04-26T12:43:07.229Z,6.89
2023-04-26T12:45:34.719Z,6.69
2023-04-26T12:48:02.345Z,6.53
2023-04-26T12:50:29.244Z,6.44
2023-04-26T12:52:56.830Z,6.32
2023-04-26T12:55:23.807Z,6.08
2023-04-26T12:57:50.696Z,5.95
2023-04-26T13:00:18.145Z,5.91
2023-04-26T13:02:45.437Z,5.89
2023-04-26T13:05:13.376Z,5.94
2023-04-26T13:07:42.348Z,6.02
2023-04-26T13:10:12.839Z,5.98
2023-04-26T13:12:40.463Z,6.04
2023-04-26T13:15:08.280Z,6.10
2023-04-26T13:17:37.420Z,6.20
2023-04-26T13:20:08.103Z,6.29
2023-04-26T13:22:35.124Z,6.27
2023-04-26T13:25:02.279Z,6.46
2023-04-26T13:27:31.449Z,6.65
2023-04-26T13:29:58.802Z,6.91
2023-04-26T13:32:25.962Z,6.92
2023-04-26T13:34:53.485Z,7.10
2023-04-26T13:37:21.589Z,7.12
2023-04-26T13:39:48.768Z,7.47
2023-04-26T13:42:16.569Z,7.70
2023-04-26T13:44:43.886Z,7.74
2023-04-26T13:47:10.965Z,7.84
2023-04-26T13:49:41.264Z,7.99
2023-04-26T13:52:08.161Z,8.16
2023-04-26T13:54:36.190Z,8.36
2023-04-26T13:57:04.213Z,8.67
2023-04-26T13:59:31.080Z,8.63
2023-04-26T14:01:59.232Z,8.66
2023-04-26T14:04:26.608Z,8.65
2023-04-26T14:06:53.935Z,9.00
2023-04-26T14:09:20.942Z,9.15
2023-04-26T14:11:57.186Z,9.38
2023-04-26T14:14:33.777Z,11.20
2023-04-26T14:17:00.715Z,11.79
2023-04-26T14:19:27.531Z,11.07
2023-04-26T14:21:54.360Z,10.74
2023-04-26T14:24:21.275Z,10.19
2023-04-26T14:26:48.151Z,10.12
2023-04-26T14:29:14.990Z,10.56
2023-04-26T14:31:42.495Z,10.16
2023-04-26T14:34:09.351Z,9.72
2023-04-26T14:36:36.233Z,9.41
2023-04-26T14:39:03.132Z,9.13
2023-04-26T14:41:29.953Z,8.89
2023-04-26T14:43:56.893Z,8.67
2023-04-26T14:46:23.829Z,8.47
2023-04-26T14:48:51.221Z,8.14
2023-04-26T14:51:18.067Z,8.02
2023-04-26T14:53:44.999Z,8.06
2023-04-26T14:56:11.804Z,7.84
2023-04-26T14:58:38.694Z,7.68
2023-04-26T15:01:05.561Z,7.54
2023-04-26T15:03:33.229Z,7.26
2023-04-26T15:06:00.248Z,7.11
2023-04-26T15:08:27.257Z,6.87
2023-04-26T15:10:54.228Z,6.75
2023-04-26T15:13:21.079Z,6.67
2023-04-26T15:15:48.126Z,6.57
2023-04-26T15:18:15.098Z,6.43
2023-04-26T15:20:41.992Z,6.38
2023-04-26T15:23:09.062Z,6.38
2023-04-26T15:25:37.327Z,6.41
2023-04-26T15:28:04.747Z,6.42
2023-04-26T15:30:31.858Z,6.57
2023-04-26T15:32:58.945Z,6.63
2023-04-26T15:35:25.973Z,6.77
2023-04-26T15:37:54.190Z,6.74
2023-04-26T15:40:24.857Z,6.59
2023-04-26T15:42:52.314Z,6.78
2023-04-26T15:45:20.262Z,6.78
2023-04-26T15:47:47.405Z,6.86
2023-04-26T15:50:14.564Z,6.84
2023-04-26T15:52:41.603Z,7.12
2023-04-26T15:55:09.628Z,7.38
2023-04-26T15:57:36.674Z,7.82
2023-04-26T16:00:06.097Z,8.08
2023-04-26T16:02:35.015Z,7.98
2023-04-26T16:05:02.207Z,7.52
2023-04-26T16:07:29.209Z,7.53
2023-04-26T16:09:56.140Z,7.46
2023-04-26T16:12:22.994Z,7.42
2023-04-26T16:14:51.431Z,7.33
2023-04-26T16:17:18.244Z,7.29
2023-04-26T16:19:45.104Z,7.25
2023-04-26T16:22:11.911Z,7.20
2023-04-26T16:24:38.774Z,7.25
2023-04-26T16:27:05.628Z,7.21
2023-04-26T16:29:32.528Z,7.10
2023-04-26T16:31:59.749Z,7.10
2023-04-26T16:34:27.057Z,7.14
2023-04-26T16:36:53.859Z,7.14
2023-04-26T16:39:21.661Z,7.15
2023-04-26T16:41:48.452Z,7.24
2023-04-26T16:44:16.914Z,7.25
2023-04-26T16:46:43.775Z,7.24
2023-04-26T16:49:11.102Z,7.23
2023-04-26T16:51:38.308Z,7.23
2023-04-26T16:54:05.477Z,7.17
2023-04-26T16:56:35.182Z,7.19
2023-04-26T16:59:02.247Z,7.13
2023-04-26T17:01:29.093Z,7.15
2023-04-26T17:03:56.001Z,7.08
2023-04-26T17:06:22.873Z,7.17
2023-04-26T17:08:49.844Z,7.12
2023-04-26T17:11:16.913Z,7.20
2023-04-26T17:13:44.047Z,7.20
2023-04-26T17:16:11.340Z,7.11
2023-04-26T17:18:38.714Z,6.99
2023-04-26T17:21:06.248Z,6.98
2023-04-26T17:23:33.975Z,6.92
2023-04-26T17:26:04.578Z,6.92
2023-04-26T17:28:33.230Z,6.89
2023-04-26T17:31:00.164Z,6.94
2023-04-26T17:33:27.402Z,6.85
2023-04-26T17:35:54.348Z,6.87
2023-04-26T17:38:21.254Z,6.83
2023-04-26T17:40:53.579Z,6.81
2023-04-26T17:43:20.777Z,6.71
2023-04-26T17:45:47.814Z,6.64
2023-04-26T17:48:14.708Z,6.67
2023-04-26T17:50:41.772Z,6.61
2023-04-26T17:53:08.807Z,6.55
2023-04-26T17:55:36.678Z,6.47
2023-04-26T17:58:03.566Z,6.38
2023-04-26T18:00:30.438Z,6.28
2023-04-26T18:02:58.092Z,6.17
2023-04-26T18:05:25.741Z,6.11
2023-04-26T18:07:52.555Z,6.06
2023-04-26T18:10:19.516Z,5.97
2023-04-26T18:12:46.548Z,5.93
2023-04-26T18:15:14.156Z,5.86
2023-04-26T18:17:41.769Z,5.81
2023-04-26T18:20:09.569Z,5.69
2023-04-26T18:22:36.376Z,5.59
2023-04-26T18:25:04.064Z,5.55
2023-04-26T18:27:31.546Z,5.55
2023-04-26T18:29:58.631Z,5.44
2023-04-26T18:32:25.737Z,5.39
2023-04-26T18:34:52.630Z,5.28
2023-04-26T18:37:20.441Z,5.16
2023-04-26T18:39:47.345Z,5.12
2023-04-26T18:42:14.167Z,5.02
2023-04-26T18:44:41.612Z,4.93
2023-04-26T18:47:08.597Z,4.80
2023-04-26T18:49:35.573Z,4.72
2023-04-26T18:52:02.732Z,4.69
2023-04-26T18:54:31.229Z,4.56
2023-04-26T18:56:58.101Z,4.48
2023-04-26T18:59:24.906Z,4.40
2023-04-26T19:01:51.801Z,4.30
2023-04-26T19:04:18.814Z,4.25
2023-04-26T19:06:45.826Z,4.20
2023-04-26T19:09:13.214Z,4.15
2023-04-26T19:11:40.498Z,4.08
2023-04-26T19:14:07.554Z,4.02
2023-04-26T19:16:35.521Z,4.04
2023-04-26T19:19:03.392Z,4.02
2023-04-26T19:21:30.268Z,3.94
2023-04-26T19:23:57.150Z,3.91
2023-04-26T19:26:24.121Z,3.84
2023-04-26T19:28:51.173Z,3.82
2023-04-26T19:31:17.952Z,3.74
2023-04-26T19:33:46.283Z,3.75
2023-04-26T19:36:13.319Z,3.69
2023-04-26T19:38:40.212Z,3.62
2023-04-26T19:41:07.080Z,3.58
2023-04-26T19:43:33.939Z,3.52
2023-04-26T19:46:00.816Z,3.55
2023-04-26T19:48:28.028Z,3.48
2023-04-26T19:50:54.900Z,3.46
2023-04-26T19:53:21.759Z,3.41
2023-04-26T19:55:48.971Z,3.42
2023-04-26T19:58:15.864Z,3.37
2023-04-26T20:00:43.923Z,3.36
2023-04-26T20:03:11.297Z,3.35
2023-04-26T20:05:38.236Z,3.39
2023-04-26T20:08:05.299Z,3.45
2023-04-26T20:10:34.347Z,3.52
2023-04-26T20:13:01.707Z,3.51
2023-04-26T20:15:30.418Z,3.45
2023-04-26T20:17:58.719Z,3.40
2023-04-26T20:20:25.758Z,3.34
2023-04-26T20:22:52.610Z,3.32
2023-04-26T20:25:20.197Z,3.32
2023-04-26T20:27:47.501Z,3.24
2023-04-26T20:30:15.168Z,3.24
2023-04-26T20:32:42.454Z,3.31
2023-04-26T20:35:09.682Z,3.28
2023-04-26T20:37:36.477Z,3.14
2023-04-26T20:40:03.851Z,3.13
2023-04-26T20:42:30.722Z,3.03
2023-04-26T20:44:59.223Z,3.01
2023-04-26T20:47:27.436Z,2.91
2023-04-26T20:49:54.339Z,2.85
2023-04-26T20:52:21.462Z,2.75
2023-04-26T20:54:48.340Z,2.75
2023-04-26T20:57:15.239Z,2.75
2023-04-26T20:59:42.144Z,2.67
2023-04-26T21:02:09.231Z,2.61
2023-04-26T21:04:39.104Z,2.63
2023-04-26T21:07:06.350Z,2.58
2023-04-26T21:09:33.189Z,2.60
2023-04-26T21:12:00.010Z,2.51
2023-04-26T21:14:27.111Z,2.48
2023-04-26T21:16:54.232Z,2.41
2023-04-26T21:19:21.368Z,2.34
2023-04-26T21:21:48.253Z,2.36
2023-04-26T21:24:15.083Z,2.36
2023-04-26T21:26:41.941Z,2.36
2023-04-26T21:29:08.837Z,2.29
2023-04-26T21:31:36.007Z,2.27
2023-04-26T21:34:03.064Z,2.27
2023-04-26T21:36:30.227Z,2.19
2023-04-26T21:38:57.139Z,2.19
2023-04-26T21:41:25.981Z,2.23
2023-04-26T21:43:53.339Z,2.19
2023-04-26T21:46:20.184Z,2.08
2023-04-26T21:48:47.300Z,2.02
2023-04-26T21:51:14.200Z,2.02
2023-04-26T21:53:41.329Z,1.96
2023-04-26T21:56:08.353Z,2.04
2023-04-26T21:58:35.205Z,1.97
2023-04-26T22:01:10.167Z,1.90
2023-04-26T22:03:37.911Z,1.97
2023-04-26T22:06:06.127Z,1.95
2023-04-26T22:08:33.207Z,1.91
2023-04-26T22:11:00.723Z,1.81
2023-04-26T22:13:27.700Z,1.80
2023-04-26T22:15:54.606Z,1.73
2023-04-26T22:18:21.535Z,1.75
2023-04-26T22:20:48.360Z,1.73
2023-04-26T22:23:15.305Z,1.80
2023-04-26T22:25:42.179Z,1.68
2023-04-26T22:28:08.970Z,1.74
2023-04-26T22:30:35.976Z,1.68
2023-04-26T22:33:03.107Z,1.63
2023-04-26T22:35:30.239Z,1.57
2023-04-26T22:37:57.169Z,1.65
2023-04-26T22:40:23.966Z,1.57
2023-04-26T22:42:50.976Z,1.49
2023-04-26T22:45:17.812Z,1.53
2023-04-26T22:47:44.771Z,1.52
2023-04-26T22:50:11.915Z,1.48
2023-04-26T22:52:39.034Z,1.40
2023-04-26T22:55:06.736Z,1.43
2023-04-26T22:57:33.525Z,1.39
2023-04-26T23:00:00.429Z,1.28
2023-04-26T23:02:27.438Z,1.30
2023-04-26T23:04:54.571Z,1.30
2023-04-26T23:07:21.547Z,1.36
2023-04-26T23:09:48.487Z,1.39
2023-04-26T23:12:21.338Z,1.41
2023-04-26T23:14:48.879Z,1.53
2023-04-26T23:17:15.886Z,1.59
2023-04-26T23:19:42.936Z,1.63
2023-04-26T23:22:09.806Z,1.69
2023-04-26T23:24:36.703Z,1.63
2023-04-26T23:27:03.900Z,1.72
2023-04-26T23:29:31.121Z,1.68
2023-04-26T23:31:58.234Z,1.63
2023-04-26T23:34:25.366Z,1.65
2023-04-26T23:36:52.380Z,1.67
2023-04-26T23:39:19.375Z,1.82
2023-04-26T23:41:46.236Z,1.90
2023-04-26T23:44:13.060Z,1.82
2023-04-26T23:46:39.991Z,1.75
2023-04-26T23:49:06.915Z,1.68
2023-04-26T23:51:33.768Z,1.67
2023-04-26T23:54:00.923Z,1.58
2023-04-26T23:56:27.809Z,1.48
2023-04-26T23:58:54.777Z,1.42
